sensor_id;sensor_type;location;lat;lon;timestamp;P1;durP1;ratioP1;P2;durP2;ratioP2
25649;SDS011;13505;45.196;5.696;2024-01-07T05:33:10;1.02;;;0.70;;
25649;SDS011;13505;45.196;5.696;2024-01-07T05:38:00;1.05;;;0.60;;
25649;SDS011;13505;45.196;5.696;2024-01-07T05:42:51;0.60;;;0.60;;
25649;SDS011;13505;45.196;5.696;2024-01-07T05:47:41;0.45;;;0.45;;
25649;SDS011;13505;45.196;5.696;2024-01-07T05:52:31;0.73;;;0.73;;
25649;SDS011;13505;45.196;5.696;2024-01-07T05:57:22;0.90;;;0.75;;
25649;SDS011;13505;45.196;5.696;2024-01-07T06:02:12;2.75;;;0.60;;
25649;SDS011;13505;45.196;5.696;2024-01-07T06:07:03;0.45;;;0.40;;
25649;SDS011;13505;45.196;5.696;2024-01-07T06:11:53;0.55;;;0.52;;
25649;SDS011;13505;45.196;5.696;2024-01-07T06:16:44;1.25;;;0.77;;
25649;SDS011;13505;45.196;5.696;2024-01-07T06:21:34;0.65;;;0.57;;
25649;SDS011;13505;45.196;5.696;2024-01-07T06:26:24;0.80;;;0.60;;
25649;SDS011;13505;45.196;5.696;2024-01-07T06:31:15;0.60;;;0.57;;
25649;SDS011;13505;45.196;5.696;2024-01-07T06:36:05;1.10;;;0.65;;
25649;SDS011;13505;45.196;5.696;2024-01-07T06:40:56;0.70;;;0.70;;
25649;SDS011;13505;45.196;5.696;2024-01-07T06:45:50;0.57;;;0.50;;
25649;SDS011;13505;45.196;5.696;2024-01-07T06:50:41;1.30;;;0.75;;
25649;SDS011;13505;45.196;5.696;2024-01-07T06:55:31;1.35;;;1.05;;
25649;SDS011;13505;45.196;5.696;2024-01-07T07:00:21;1.65;;;1.15;;
25649;SDS011;13505;45.196;5.696;2024-01-07T07:05:12;1.10;;;1.00;;
25649;SDS011;13505;45.196;5.696;2024-01-07T07:10:02;1.30;;;0.90;;
25649;SDS011;13505;45.196;5.696;2024-01-07T07:14:53;3.17;;;1.70;;
25649;SDS011;13505;45.196;5.696;2024-01-07T07:19:44;2.17;;;1.20;;
25649;SDS011;13505;45.196;5.696;2024-01-07T07:24:34;2.45;;;1.75;;
25649;SDS011;13505;45.196;5.696;2024-01-07T07:29:25;2.33;;;1.50;;
25649;SDS011;13505;45.196;5.696;2024-01-07T07:34:15;2.85;;;1.75;;
25649;SDS011;13505;45.196;5.696;2024-01-07T07:39:05;1.52;;;1.38;;
25649;SDS011;13505;45.196;5.696;2024-01-07T07:43:56;1.95;;;1.45;;
25649;SDS011;13505;45.196;5.696;2024-01-07T07:48:46;2.72;;;1.70;;
25649;SDS011;13505;45.196;5.696;2024-01-07T07:53:39;2.70;;;1.60;;
25649;SDS011;13505;45.196;5.696;2024-01-07T07:58:30;2.58;;;1.58;;
25649;SDS011;13505;45.196;5.696;2024-01-07T08:03:20;1.70;;;1.40;;
25649;SDS011;13505;45.196;5.696;2024-01-07T08:08:10;6.18;;;1.60;;
25649;SDS011;13505;45.196;5.696;2024-01-07T08:13:01;22.02;;;9.93;;
25649;SDS011;13505;45.196;5.696;2024-01-07T08:17:51;4.13;;;2.03;;
25649;SDS011;13505;45.196;5.696;2024-01-07T08:22:42;7.35;;;3.15;;
25649;SDS011;13505;45.196;5.696;2024-01-07T08:27:32;3.70;;;1.50;;
25649;SDS011;13505;45.196;5.696;2024-01-07T08:32:22;2.70;;;1.67;;
25649;SDS011;13505;45.196;5.696;2024-01-07T08:37:13;2.20;;;1.55;;
25649;SDS011;13505;45.196;5.696;2024-01-07T08:42:04;2.05;;;1.52;;
25649;SDS011;13505;45.196;5.696;2024-01-07T08:46:54;3.78;;;2.45;;
25649;SDS011;13505;45.196;5.696;2024-01-07T08:51:45;5.47;;;2.72;;
25649;SDS011;13505;45.196;5.696;2024-01-07T08:56:35;2.53;;;1.75;;
25649;SDS011;13505;45.196;5.696;2024-01-07T09:01:25;3.72;;;1.95;;
25649;SDS011;13505;45.196;5.696;2024-01-07T09:06:16;2.90;;;1.75;;
25649;SDS011;13505;45.196;5.696;2024-01-07T09:11:07;2.00;;;1.30;;
25649;SDS011;13505;45.196;5.696;2024-01-07T09:16:31;3.25;;;2.22;;
25649;SDS011;13505;45.196;5.696;2024-01-07T09:21:22;2.22;;;1.60;;
25649;SDS011;13505;45.196;5.696;2024-01-07T09:32:19;2.03;;;1.48;;
25649;SDS011;13505;45.196;5.696;2024-01-07T09:37:09;3.90;;;2.10;;
25649;SDS011;13505;45.196;5.696;2024-01-07T09:42:00;4.55;;;2.40;;
25649;SDS011;13505;45.196;5.696;2024-01-07T09:47:14;3.53;;;2.13;;
25649;SDS011;13505;45.196;5.696;2024-01-07T09:52:06;4.55;;;1.80;;
25649;SDS011;13505;45.196;5.696;2024-01-07T09:57:02;2.20;;;1.50;;
25649;SDS011;13505;45.196;5.696;2024-01-07T10:01:53;2.75;;;1.70;;
25649;SDS011;13505;45.196;5.696;2024-01-07T10:07:22;2.75;;;1.70;;
25649;SDS011;13505;45.196;5.696;2024-01-07T10:12:52;2.95;;;1.80;;
25649;SDS011;13505;45.196;5.696;2024-01-07T10:17:43;2.78;;;1.88;;
25649;SDS011;13505;45.196;5.696;2024-01-07T10:22:38;3.95;;;3.00;;
25649;SDS011;13505;45.196;5.696;2024-01-07T10:27:49;5.28;;;2.90;;
25649;SDS011;13505;45.196;5.696;2024-01-07T10:32:42;4.03;;;2.28;;
25649;SDS011;13505;45.196;5.696;2024-01-07T10:37:33;4.53;;;2.20;;
25649;SDS011;13505;45.196;5.696;2024-01-07T10:42:23;3.45;;;2.08;;
25649;SDS011;13505;45.196;5.696;2024-01-07T10:47:14;6.07;;;1.98;;
25649;SDS011;13505;45.196;5.696;2024-01-07T10:52:09;2.10;;;1.50;;
25649;SDS011;13505;45.196;5.696;2024-01-07T10:57:17;3.28;;;2.00;;
25649;SDS011;13505;45.196;5.696;2024-01-07T11:02:30;4.60;;;1.80;;
25649;SDS011;13505;45.196;5.696;2024-01-07T11:12:22;2.70;;;1.67;;
25649;SDS011;13505;45.196;5.696;2024-01-07T11:17:13;6.93;;;1.90;;
25649;SDS011;13505;45.196;5.696;2024-01-07T11:22:22;3.17;;;1.80;;
25649;SDS011;13505;45.196;5.696;2024-01-07T11:27:17;2.50;;;1.70;;
25649;SDS011;13505;45.196;5.696;2024-01-07T11:32:08;3.03;;;1.67;;
25649;SDS011;13505;45.196;5.696;2024-01-07T11:37:02;3.45;;;2.00;;
25649;SDS011;13505;45.196;5.696;2024-01-07T11:41:57;3.00;;;2.08;;
25649;SDS011;13505;45.196;5.696;2024-01-07T11:46:48;25.63;;;11.80;;
25649;SDS011;13505;45.196;5.696;2024-01-07T11:51:39;4.13;;;2.35;;
25649;SDS011;13505;45.196;5.696;2024-01-07T11:56:29;3.80;;;1.90;;
25649;SDS011;13505;45.196;5.696;2024-01-07T12:01:20;2.83;;;1.75;;
25649;SDS011;13505;45.196;5.696;2024-01-07T12:06:10;3.50;;;1.95;;
25649;SDS011;13505;45.196;5.696;2024-01-07T12:11:04;3.55;;;2.17;;
25649;SDS011;13505;45.196;5.696;2024-01-07T12:15:58;4.93;;;2.75;;
25649;SDS011;13505;45.196;5.696;2024-01-07T12:20:58;4.35;;;2.40;;
25649;SDS011;13505;45.196;5.696;2024-01-07T12:25:49;8.27;;;5.20;;
25649;SDS011;13505;45.196;5.696;2024-01-07T12:30:40;3.92;;;2.20;;
25649;SDS011;13505;45.196;5.696;2024-01-07T12:35:30;5.93;;;3.00;;
25649;SDS011;13505;45.196;5.696;2024-01-07T12:40:21;4.53;;;2.60;;
25649;SDS011;13505;45.196;5.696;2024-01-07T12:45:12;4.70;;;2.72;;
25649;SDS011;13505;45.196;5.696;2024-01-07T12:50:04;4.15;;;2.67;;
25649;SDS011;13505;45.196;5.696;2024-01-07T12:54:54;5.00;;;2.83;;
25649;SDS011;13505;45.196;5.696;2024-01-07T12:59:46;5.03;;;3.30;;
25649;SDS011;13505;45.196;5.696;2024-01-07T13:04:36;5.88;;;3.20;;
25649;SDS011;13505;45.196;5.696;2024-01-07T13:09:26;5.38;;;2.92;;
25649;SDS011;13505;45.196;5.696;2024-01-07T13:14:17;5.78;;;2.88;;
25649;SDS011;13505;45.196;5.696;2024-01-07T13:19:07;6.28;;;3.40;;
25649;SDS011;13505;45.196;5.696;2024-01-07T13:24:00;6.70;;;3.38;;
25649;SDS011;13505;45.196;5.696;2024-01-07T13:28:51;5.00;;;3.35;;
25649;SDS011;13505;45.196;5.696;2024-01-07T13:33:41;8.95;;;4.45;;
25649;SDS011;13505;45.196;5.696;2024-01-07T13:38:32;5.95;;;3.85;;
25649;SDS011;13505;45.196;5.696;2024-01-07T13:43:22;5.38;;;3.08;;
25649;SDS011;13505;45.196;5.696;2024-01-07T13:48:15;5.93;;;3.13;;
25649;SDS011;13505;45.196;5.696;2024-01-07T13:53:05;7.13;;;3.55;;
25649;SDS011;13505;45.196;5.696;2024-01-07T13:57:56;4.43;;;2.65;;
25649;SDS011;13505;45.196;5.696;2024-01-07T14:02:46;5.10;;;2.80;;
25649;SDS011;13505;45.196;5.696;2024-01-07T14:07:39;4.45;;;3.03;;
25649;SDS011;13505;45.196;5.696;2024-01-07T14:12:30;7.47;;;2.70;;
25649;SDS011;13505;45.196;5.696;2024-01-07T14:17:20;4.47;;;2.67;;
25649;SDS011;13505;45.196;5.696;2024-01-07T14:22:11;5.93;;;2.97;;
25649;SDS011;13505;45.196;5.696;2024-01-07T14:27:02;7.95;;;3.33;;
25649;SDS011;13505;45.196;5.696;2024-01-07T14:31:53;4.85;;;2.70;;
25649;SDS011;13505;45.196;5.696;2024-01-07T14:36:43;4.82;;;3.08;;
25649;SDS011;13505;45.196;5.696;2024-01-07T14:41:34;7.10;;;3.15;;
25649;SDS011;13505;45.196;5.696;2024-01-07T14:46:24;5.10;;;3.00;;
25649;SDS011;13505;45.196;5.696;2024-01-07T14:51:15;6.07;;;3.58;;
25649;SDS011;13505;45.196;5.696;2024-01-07T14:56:05;5.72;;;3.53;;
25649;SDS011;13505;45.196;5.696;2024-01-07T15:00:56;7.07;;;4.32;;
25649;SDS011;13505;45.196;5.696;2024-01-07T15:05:48;6.10;;;2.97;;
25649;SDS011;13505;45.196;5.696;2024-01-07T15:10:38;7.78;;;5.22;;
25649;SDS011;13505;45.196;5.696;2024-01-07T15:15:28;7.55;;;3.85;;
25649;SDS011;13505;45.196;5.696;2024-01-07T15:20:19;8.15;;;3.70;;
25649;SDS011;13505;45.196;5.696;2024-01-07T15:25:10;6.20;;;3.80;;
25649;SDS011;13505;45.196;5.696;2024-01-07T15:30:00;6.60;;;3.50;;
25649;SDS011;13505;45.196;5.696;2024-01-07T15:34:51;5.97;;;3.28;;
25649;SDS011;13505;45.196;5.696;2024-01-07T15:39:41;6.53;;;3.47;;
25649;SDS011;13505;45.196;5.696;2024-01-07T15:44:31;4.72;;;2.78;;
25649;SDS011;13505;45.196;5.696;2024-01-07T15:49:23;6.97;;;3.60;;
25649;SDS011;13505;45.196;5.696;2024-01-07T15:54:13;8.27;;;4.85;;
25649;SDS011;13505;45.196;5.696;2024-01-07T15:59:04;6.68;;;3.83;;
25649;SDS011;13505;45.196;5.696;2024-01-07T16:03:54;6.82;;;3.65;;
25649;SDS011;13505;45.196;5.696;2024-01-07T16:08:45;5.72;;;3.33;;
25649;SDS011;13505;45.196;5.696;2024-01-07T16:13:35;7.38;;;4.20;;
25649;SDS011;13505;45.196;5.696;2024-01-07T16:18:26;8.90;;;4.80;;
25649;SDS011;13505;45.196;5.696;2024-01-07T16:23:17;8.70;;;3.85;;
25649;SDS011;13505;45.196;5.696;2024-01-07T16:28:07;9.63;;;4.30;;
25649;SDS011;13505;45.196;5.696;2024-01-07T16:32:57;35.35;;;6.30;;
25649;SDS011;13505;45.196;5.696;2024-01-07T16:37:48;10.75;;;4.82;;
25649;SDS011;13505;45.196;5.696;2024-01-07T16:42:38;9.02;;;4.32;;
25649;SDS011;13505;45.196;5.696;2024-01-07T16:47:29;19.50;;;5.28;;
25649;SDS011;13505;45.196;5.696;2024-01-07T16:52:19;35.97;;;8.02;;
25649;SDS011;13505;45.196;5.696;2024-01-07T16:57:10;31.17;;;6.18;;
25649;SDS011;13505;45.196;5.696;2024-01-07T17:02:00;11.32;;;4.53;;
25649;SDS011;13505;45.196;5.696;2024-01-07T17:06:50;13.10;;;4.53;;
25649;SDS011;13505;45.196;5.696;2024-01-07T17:11:41;23.10;;;5.13;;
25649;SDS011;13505;45.196;5.696;2024-01-07T17:16:31;9.93;;;4.72;;
25649;SDS011;13505;45.196;5.696;2024-01-07T17:21:24;14.40;;;5.07;;
25649;SDS011;13505;45.196;5.696;2024-01-07T17:26:14;13.30;;;5.50;;
25649;SDS011;13505;45.196;5.696;2024-01-07T17:31:05;10.38;;;4.95;;
25649;SDS011;13505;45.196;5.696;2024-01-07T17:35:55;10.68;;;5.05;;
25649;SDS011;13505;45.196;5.696;2024-01-07T17:40:46;9.15;;;5.07;;
25649;SDS011;13505;45.196;5.696;2024-01-07T17:45:37;9.80;;;5.15;;
25649;SDS011;13505;45.196;5.696;2024-01-07T17:50:27;9.80;;;5.25;;
25649;SDS011;13505;45.196;5.696;2024-01-07T17:55:18;10.23;;;5.25;;
25649;SDS011;13505;45.196;5.696;2024-01-07T18:00:08;12.07;;;5.97;;
25649;SDS011;13505;45.196;5.696;2024-01-07T18:05:00;10.50;;;5.35;;
25649;SDS011;13505;45.196;5.696;2024-01-07T18:09:50;11.80;;;5.60;;
25649;SDS011;13505;45.196;5.696;2024-01-07T18:14:43;10.77;;;5.82;;
25649;SDS011;13505;45.196;5.696;2024-01-07T18:19:34;10.45;;;5.90;;
25649;SDS011;13505;45.196;5.696;2024-01-07T18:24:24;10.35;;;5.90;;
25649;SDS011;13505;45.196;5.696;2024-01-07T18:29:15;10.48;;;5.57;;
25649;SDS011;13505;45.196;5.696;2024-01-07T18:34:06;11.20;;;5.60;;
25649;SDS011;13505;45.196;5.696;2024-01-07T18:38:56;14.30;;;7.47;;
25649;SDS011;13505;45.196;5.696;2024-01-07T18:43:47;11.73;;;6.40;;
25649;SDS011;13505;45.196;5.696;2024-01-07T18:48:37;10.85;;;6.13;;
25649;SDS011;13505;45.196;5.696;2024-01-07T18:53:28;11.20;;;5.97;;
25649;SDS011;13505;45.196;5.696;2024-01-07T18:58:18;11.40;;;6.10;;
25649;SDS011;13505;45.196;5.696;2024-01-07T19:03:08;11.03;;;6.27;;
25649;SDS011;13505;45.196;5.696;2024-01-07T19:07:59;10.32;;;5.88;;
25649;SDS011;13505;45.196;5.696;2024-01-07T19:12:51;14.90;;;7.03;;
25649;SDS011;13505;45.196;5.696;2024-01-07T19:17:41;19.43;;;7.93;;
25649;SDS011;13505;45.196;5.696;2024-01-07T19:22:37;14.10;;;6.75;;
25649;SDS011;13505;45.196;5.696;2024-01-07T19:27:27;11.27;;;6.07;;
25649;SDS011;13505;45.196;5.696;2024-01-07T19:32:22;10.68;;;6.03;;
25649;SDS011;13505;45.196;5.696;2024-01-07T19:37:13;13.15;;;6.47;;
25649;SDS011;13505;45.196;5.696;2024-01-07T19:42:05;12.48;;;6.65;;
25649;SDS011;13505;45.196;5.696;2024-01-07T19:46:58;11.15;;;6.65;;
25649;SDS011;13505;45.196;5.696;2024-01-07T19:51:49;12.63;;;6.40;;
25649;SDS011;13505;45.196;5.696;2024-01-07T19:56:39;14.10;;;6.85;;
25649;SDS011;13505;45.196;5.696;2024-01-07T20:01:30;13.03;;;6.73;;
25649;SDS011;13505;45.196;5.696;2024-01-07T20:06:20;13.80;;;6.73;;
25649;SDS011;13505;45.196;5.696;2024-01-07T20:11:19;9.93;;;5.50;;
25649;SDS011;13505;45.196;5.696;2024-01-07T20:16:14;12.20;;;6.15;;
25649;SDS011;13505;45.196;5.696;2024-01-07T20:21:06;11.40;;;6.10;;
25649;SDS011;13505;45.196;5.696;2024-01-07T20:25:56;11.82;;;6.05;;
25649;SDS011;13505;45.196;5.696;2024-01-07T20:30:46;11.00;;;6.13;;
25649;SDS011;13505;45.196;5.696;2024-01-07T20:35:38;10.13;;;6.13;;
25649;SDS011;13505;45.196;5.696;2024-01-07T20:40:29;12.82;;;6.10;;
25649;SDS011;13505;45.196;5.696;2024-01-07T20:45:19;11.45;;;5.72;;
25649;SDS011;13505;45.196;5.696;2024-01-07T20:50:10;12.38;;;6.68;;
25649;SDS011;13505;45.196;5.696;2024-01-07T20:55:00;9.55;;;5.55;;
25649;SDS011;13505;45.196;5.696;2024-01-07T20:59:51;10.43;;;5.40;;
25649;SDS011;13505;45.196;5.696;2024-01-07T21:04:42;10.18;;;5.38;;
25649;SDS011;13505;45.196;5.696;2024-01-07T21:09:34;10.18;;;5.90;;
25649;SDS011;13505;45.196;5.696;2024-01-07T21:14:25;11.33;;;5.93;;
25649;SDS011;13505;45.196;5.696;2024-01-07T21:19:15;13.13;;;6.47;;
25649;SDS011;13505;45.196;5.696;2024-01-07T21:24:05;10.73;;;5.13;;
25649;SDS011;13505;45.196;5.696;2024-01-07T21:28:56;9.38;;;5.20;;
25649;SDS011;13505;45.196;5.696;2024-01-07T21:33:47;7.87;;;4.53;;
25649;SDS011;13505;45.196;5.696;2024-01-07T21:38:38;9.57;;;5.05;;
25649;SDS011;13505;45.196;5.696;2024-01-07T21:43:28;10.63;;;5.78;;
25649;SDS011;13505;45.196;5.696;2024-01-07T21:48:22;7.45;;;4.97;;
25649;SDS011;13505;45.196;5.696;2024-01-07T21:53:13;8.68;;;4.60;;
25649;SDS011;13505;45.196;5.696;2024-01-07T21:58:04;9.65;;;4.63;;
25649;SDS011;13505;45.196;5.696;2024-01-07T22:02:54;6.10;;;4.00;;
25649;SDS011;13505;45.196;5.696;2024-01-07T22:07:44;7.10;;;3.90;;
25649;SDS011;13505;45.196;5.696;2024-01-07T22:12:35;7.00;;;4.35;;
25649;SDS011;13505;45.196;5.696;2024-01-07T22:17:25;7.10;;;4.37;;
25649;SDS011;13505;45.196;5.696;2024-01-07T22:22:15;7.10;;;4.28;;
25649;SDS011;13505;45.196;5.696;2024-01-07T22:27:07;8.13;;;4.32;;
25649;SDS011;13505;45.196;5.696;2024-01-07T22:31:57;8.35;;;4.35;;
25649;SDS011;13505;45.196;5.696;2024-01-07T22:36:48;7.22;;;4.00;;
25649;SDS011;13505;45.196;5.696;2024-01-07T22:41:41;8.48;;;4.53;;
25649;SDS011;13505;45.196;5.696;2024-01-07T22:46:32;8.05;;;4.13;;
25649;SDS011;13505;45.196;5.696;2024-01-07T22:51:23;6.57;;;4.25;;
25649;SDS011;13505;45.196;5.696;2024-01-07T22:56:13;10.90;;;5.10;;
